Time;durP1;ratioP1;P1;durP2;ratioP2;P2;SDS_P1;SDS_P2;PMS_P1;PMS_P2;Temp;Humidity;BMP_temperature;BMP_pressure;BME280_temperature;BME280_humidity;BME280_pressure;Samples;Min_cycle;Max_cycle;Signal;HPM_P1;HPM_P2
2023/08/20 00:01:44;;;;;;;9.70;5.50;;;;;;;;;;5050007;28;20215;-83
2023/08/20 00:04:10;;;;;;;10.93;6.07;;;;;;;;;;5033614;28;20189;-83
2023/08/20 00:06:36;;;;;;;10.13;5.60;;;;;;;;;;5033346;28;20196;-83
2023/08/20 00:09:03;;;;;;;10.50;6.10;;;;;;;;;;5049752;28;20208;-83
2023/08/20 00:11:30;;;;;;;9.97;5.37;;;;;;;;;;5033650;28;20185;-84
2023/08/20 00:13:56;;;;;;;10.20;5.53;;;;;;;;;;5049796;28;20199;-84
2023/08/20 00:16:23;;;;;;;10.80;5.13;;;;;;;;;;5033228;28;20184;-84
2023/08/20 00:18:49;;;;;;;13.33;5.60;;;;;;;;;;5033432;28;20248;-84
2023/08/20 00:21:15;;;;;;;9.03;5.40;;;;;;;;;;5034154;28;20187;-84
2023/08/20 00:23:41;;;;;;;11.50;5.63;;;;;;;;;;5049625;28;20279;-84
2023/08/20 00:26:07;;;;;;;10.90;5.37;;;;;;;;;;5049802;28;20202;-84
2023/08/20 00:28:34;;;;;;;12.23;5.53;;;;;;;;;;5033171;28;20216;-83
2023/08/20 00:31:00;;;;;;;9.03;5.70;;;;;;;;;;5033238;28;20185;-81
2023/08/20 00:33:26;;;;;;;10.13;5.57;;;;;;;;;;5033050;28;20177;-81
2023/08/20 00:35:53;;;;;;;12.43;5.80;;;;;;;;;;5049616;28;20173;-81
2023/08/20 00:38:19;;;;;;;8.77;5.30;;;;;;;;;;5032619;28;20185;-81
2023/08/20 00:40:45;;;;;;;13.30;5.60;;;;;;;;;;5032946;28;20177;-81
2023/08/20 00:43:11;;;;;;;8.63;5.87;;;;;;;;;;5032897;28;20187;-81
2023/08/20 00:45:37;;;;;;;12.30;6.00;;;;;;;;;;5033140;28;20180;-81
2023/08/20 00:48:04;;;;;;;13.13;6.17;;;;;;;;;;5032873;28;20217;-77
2023/08/20 00:50:31;;;;;;;12.03;6.00;;;;;;;;;;5033748;28;20200;-77
2023/08/20 00:52:57;;;;;;;11.83;6.20;;;;;;;;;;5032836;28;20208;-77
2023/08/20 00:55:23;;;;;;;10.63;6.30;;;;;;;;;;5032922;28;20185;-77
2023/08/20 00:57:49;;;;;;;13.33;6.20;;;;;;;;;;5033746;28;20183;-78
2023/08/20 01:00:16;;;;;;;12.77;6.70;;;;;;;;;;5049069;28;20185;-77
2023/08/20 01:02:42;;;;;;;10.63;6.63;;;;;;;;;;5048987;28;20200;-78
2023/08/20 01:05:09;;;;;;;11.00;6.10;;;;;;;;;;5032637;28;20287;-84
2023/08/20 01:07:35;;;;;;;12.27;6.73;;;;;;;;;;5049111;28;20261;-83
2023/08/20 01:10:08;;;;;;;11.27;6.53;;;;;;;;;;5049097;28;20184;-83
2023/08/20 01:12:35;;;;;;;11.23;6.53;;;;;;;;;;5049080;28;20228;-84
2023/08/20 01:15:01;;;;;;;13.83;6.20;;;;;;;;;;5032650;28;20176;-84
2023/08/20 01:17:27;;;;;;;13.93;6.73;;;;;;;;;;5032591;28;20180;-83
2023/08/20 01:19:53;;;;;;;12.83;6.23;;;;;;;;;;5032305;28;20200;-84
2023/08/20 01:22:28;;;;;;;13.93;6.63;;;;;;;;;;5049079;28;20168;-81
2023/08/20 01:25:00;;;;;;;13.60;6.50;;;;;;;;;;5048957;28;20246;-81
2023/08/20 01:27:26;;;;;;;11.63;6.60;;;;;;;;;;5048949;28;20204;-81
2023/08/20 01:29:53;;;;;;;9.70;6.47;;;;;;;;;;5049136;28;20256;-81
2023/08/20 01:32:20;;;;;;;17.27;6.60;;;;;;;;;;5032345;28;20192;-81
2023/08/20 01:34:48;;;;;;;11.73;6.20;;;;;;;;;;5048796;28;20183;-81
2023/08/20 01:37:14;;;;;;;12.77;6.80;;;;;;;;;;5032316;28;20177;-81
2023/08/20 01:39:40;;;;;;;13.27;6.40;;;;;;;;;;5032474;28;20187;-78
2023/08/20 01:42:06;;;;;;;10.47;6.37;;;;;;;;;;5032310;28;20187;-78
2023/08/20 01:44:32;;;;;;;11.40;6.40;;;;;;;;;;5032238;28;20271;-78
2023/08/20 01:46:58;;;;;;;14.50;6.47;;;;;;;;;;5031867;28;20181;-78
2023/08/20 01:49:24;;;;;;;9.70;6.03;;;;;;;;;;5032331;28;20192;-78
2023/08/20 01:51:50;;;;;;;14.10;6.23;;;;;;;;;;5035181;28;20188;-84
2023/08/20 01:54:17;;;;;;;13.17;6.33;;;;;;;;;;5052686;28;20180;-78
2023/08/20 01:56:43;;;;;;;11.70;6.63;;;;;;;;;;5035989;28;20319;-77
2023/08/20 01:59:09;;;;;;;12.40;6.60;;;;;;;;;;5052386;28;20180;-77
2023/08/20 02:01:35;;;;;;;10.20;5.97;;;;;;;;;;5035663;28;20246;-77
2023/08/20 02:04:01;;;;;;;10.67;6.33;;;;;;;;;;5035689;28;20184;-77
2023/08/20 02:06:27;;;;;;;9.87;6.10;;;;;;;;;;5051965;28;20188;-77
2023/08/20 02:08:53;;;;;;;12.33;6.10;;;;;;;;;;5035606;28;20212;-77
2023/08/20 02:11:19;;;;;;;10.27;5.57;;;;;;;;;;5035584;28;20188;-77
2023/08/20 02:13:45;;;;;;;11.67;5.67;;;;;;;;;;5035648;28;20227;-78
2023/08/20 02:16:11;;;;;;;9.70;5.50;;;;;;;;;;5051957;28;20173;-78
2023/08/20 02:18:37;;;;;;;7.93;5.40;;;;;;;;;;5035684;28;20192;-78
2023/08/20 02:21:03;;;;;;;9.47;4.93;;;;;;;;;;5051766;28;20204;-78
2023/08/20 02:23:29;;;;;;;8.93;5.60;;;;;;;;;;5035401;28;20207;-78
2023/08/20 02:25:55;;;;;;;10.13;5.60;;;;;;;;;;5036373;28;20184;-78
2023/08/20 02:28:21;;;;;;;10.67;5.33;;;;;;;;;;5051712;28;20302;-78
2023/08/20 02:30:47;;;;;;;11.57;5.40;;;;;;;;;;5035040;28;20176;-78
2023/08/20 02:33:14;;;;;;;8.03;5.47;;;;;;;;;;5051589;28;20188;-78
2023/08/20 02:35:40;;;;;;;8.10;5.30;;;;;;;;;;5035140;28;20226;-78
2023/08/20 02:38:06;;;;;;;8.20;5.23;;;;;;;;;;5051472;28;20191;-78
2023/08/20 02:40:32;;;;;;;12.03;5.43;;;;;;;;;;5051715;28;20176;-78
2023/08/20 02:42:58;;;;;;;6.73;4.70;;;;;;;;;;5035009;28;20188;-78
2023/08/20 02:45:25;;;;;;;9.70;5.00;;;;;;;;;;5051383;28;20276;-77
2023/08/20 02:47:51;;;;;;;9.43;5.00;;;;;;;;;;5035097;28;20212;-77
2023/08/20 02:50:17;;;;;;;6.70;5.10;;;;;;;;;;5034914;28;20180;-77
2023/08/20 02:52:43;;;;;;;10.73;5.13;;;;;;;;;;5034765;28;20189;-77
2023/08/20 02:55:09;;;;;;;8.07;4.93;;;;;;;;;;5051443;28;20195;-77
2023/08/20 02:57:35;;;;;;;8.77;4.97;;;;;;;;;;5036245;28;20177;-77
2023/08/20 03:00:01;;;;;;;11.17;5.30;;;;;;;;;;5034893;28;20243;-77
2023/08/20 03:02:27;;;;;;;7.43;5.17;;;;;;;;;;5050895;28;20215;-78
2023/08/20 03:04:55;;;;;;;12.40;5.60;;;;;;;;;;5034645;28;20208;-78
2023/08/20 03:07:22;;;;;;;12.50;5.50;;;;;;;;;;5034645;28;20246;-77
2023/08/20 03:09:48;;;;;;;9.80;5.60;;;;;;;;;;5035446;28;20176;-77
2023/08/20 03:12:14;;;;;;;8.33;5.63;;;;;;;;;;5034276;28;20308;-77
2023/08/20 03:14:40;;;;;;;11.70;5.53;;;;;;;;;;5051067;28;20268;-77
2023/08/20 03:17:06;;;;;;;13.00;5.37;;;;;;;;;;5034343;28;20241;-77
2023/08/20 03:19:33;;;;;;;7.53;5.10;;;;;;;;;;5034215;28;20254;-78
2023/08/20 03:21:59;;;;;;;8.80;5.40;;;;;;;;;;5050800;28;20184;-78
2023/08/20 03:24:25;;;;;;;12.13;5.77;;;;;;;;;;5034077;28;20181;-78
2023/08/20 03:26:51;;;;;;;10.73;6.13;;;;;;;;;;5050620;28;20185;-78
2023/08/20 03:29:17;;;;;;;13.60;5.67;;;;;;;;;;5034042;28;20214;-78
2023/08/20 03:31:43;;;;;;;11.53;5.50;;;;;;;;;;5050557;28;20192;-78
2023/08/20 03:34:09;;;;;;;12.63;5.90;;;;;;;;;;5033955;28;20235;-78
2023/08/20 03:36:35;;;;;;;8.90;5.73;;;;;;;;;;5034337;28;20191;-81
2023/08/20 03:39:03;;;;;;;11.83;6.30;;;;;;;;;;5034178;28;20201;-81
2023/08/20 03:41:29;;;;;;;8.67;6.27;;;;;;;;;;5050697;28;20181;-81
2023/08/20 03:43:55;;;;;;;10.67;6.57;;;;;;;;;;5050661;28;20191;-81
2023/08/20 03:46:21;;;;;;;11.73;6.30;;;;;;;;;;5033847;28;20219;-81
2023/08/20 03:48:47;;;;;;;9.07;5.90;;;;;;;;;;5033821;28;20223;-81
2023/08/20 03:51:13;;;;;;;9.33;5.93;;;;;;;;;;5034916;28;20177;-77
2023/08/20 03:53:39;;;;;;;9.30;6.17;;;;;;;;;;5033672;28;20177;-77
2023/08/20 03:56:05;;;;;;;10.07;6.50;;;;;;;;;;5033617;28;20181;-77
2023/08/20 03:58:31;;;;;;;8.40;6.97;;;;;;;;;;5033552;28;20188;-77
2023/08/20 04:00:57;;;;;;;9.47;6.57;;;;;;;;;;5033564;28;20247;-77
2023/08/20 04:03:23;;;;;;;12.23;7.10;;;;;;;;;;5050226;28;20180;-77
2023/08/20 04:05:50;;;;;;;10.07;7.00;;;;;;;;;;5033470;28;20185;-81
2023/08/20 04:08:16;;;;;;;11.43;6.93;;;;;;;;;;5033805;28;20213;-78
2023/08/20 04:10:45;;;;;;;11.53;6.87;;;;;;;;;;5033292;28;20187;-77
2023/08/20 04:13:13;;;;;;;11.93;7.00;;;;;;;;;;5048910;28;20228;-77
2023/08/20 04:15:39;;;;;;;10.50;7.30;;;;;;;;;;5049687;28;20181;-77
2023/08/20 04:18:06;;;;;;;10.77;7.10;;;;;;;;;;5049800;28;20270;-77
2023/08/20 04:20:32;;;;;;;11.43;7.70;;;;;;;;;;5033276;28;20236;-77
2023/08/20 04:22:58;;;;;;;11.63;7.73;;;;;;;;;;5033113;28;20303;-77
2023/08/20 04:25:24;;;;;;;11.83;7.70;;;;;;;;;;5033017;28;20265;-78
2023/08/20 04:27:50;;;;;;;13.77;7.63;;;;;;;;;;5032725;28;20216;-78
2023/08/20 04:30:16;;;;;;;12.60;7.37;;;;;;;;;;5033028;28;20191;-78
2023/08/20 04:32:42;;;;;;;15.53;7.53;;;;;;;;;;5032944;28;20177;-78
2023/08/20 04:35:08;;;;;;;10.63;8.30;;;;;;;;;;5049670;28;20187;-78
2023/08/20 04:37:34;;;;;;;11.87;8.07;;;;;;;;;;5049315;28;20176;-78
2023/08/20 04:40:00;;;;;;;11.33;8.17;;;;;;;;;;5032758;28;20195;-78
2023/08/20 04:42:26;;;;;;;11.77;7.93;;;;;;;;;;5049442;28;20184;-83
2023/08/20 04:44:52;;;;;;;14.53;9.17;;;;;;;;;;5032904;28;20207;-83
2023/08/20 04:47:18;;;;;;;10.87;9.17;;;;;;;;;;5032732;28;20193;-83
2023/08/20 04:49:44;;;;;;;14.40;9.03;;;;;;;;;;5033032;28;20180;-84
2023/08/20 04:52:10;;;;;;;12.10;9.17;;;;;;;;;;5032737;28;20188;-84
2023/08/20 04:54:36;;;;;;;14.93;8.90;;;;;;;;;;5032756;28;20208;-83
2023/08/20 04:57:02;;;;;;;10.70;9.33;;;;;;;;;;5049499;28;20183;-83
2023/08/20 04:59:28;;;;;;;12.77;9.60;;;;;;;;;;5032829;28;20216;-78
2023/08/20 05:01:55;;;;;;;11.83;9.90;;;;;;;;;;5032585;28;20250;-78
2023/08/20 05:04:21;;;;;;;14.00;10.47;;;;;;;;;;5032763;28;20311;-81
2023/08/20 05:06:47;;;;;;;17.50;9.97;;;;;;;;;;5016571;28;20181;-81
2023/08/20 05:09:13;;;;;;;12.73;10.00;;;;;;;;;;5032711;28;20258;-81
2023/08/20 05:11:39;;;;;;;13.23;10.10;;;;;;;;;;5016316;28;20177;-81
2023/08/20 05:14:05;;;;;;;12.47;9.93;;;;;;;;;;5015888;28;20231;-81
2023/08/20 05:16:31;;;;;;;16.00;10.07;;;;;;;;;;5032677;28;20180;-84
2023/08/20 05:18:57;;;;;;;15.87;10.00;;;;;;;;;;5033466;28;20173;-78
2023/08/20 05:21:23;;;;;;;15.33;10.40;;;;;;;;;;5016123;28;20190;-78
2023/08/20 05:23:50;;;;;;;14.23;10.73;;;;;;;;;;5032510;28;20204;-84
2023/08/20 05:26:16;;;;;;;18.07;11.30;;;;;;;;;;5036243;28;20173;-83
2023/08/20 05:28:42;;;;;;;13.70;10.80;;;;;;;;;;5036416;28;20212;-78
2023/08/20 05:31:08;;;;;;;12.40;10.53;;;;;;;;;;5036541;28;20173;-78
2023/08/20 05:33:34;;;;;;;13.83;10.10;;;;;;;;;;5036327;28;20203;-77
2023/08/20 05:36:00;;;;;;;14.70;10.57;;;;;;;;;;5036279;28;20172;-78
2023/08/20 05:38:26;;;;;;;12.60;9.67;;;;;;;;;;5037252;28;20184;-78
2023/08/20 05:40:52;;;;;;;13.73;9.60;;;;;;;;;;5036173;28;20192;-78
2023/08/20 05:43:18;;;;;;;11.53;9.83;;;;;;;;;;5036149;28;20192;-78
2023/08/20 05:45:44;;;;;;;17.30;10.40;;;;;;;;;;5035986;28;20188;-78
2023/08/20 05:48:10;;;;;;;13.97;9.43;;;;;;;;;;5019611;28;20223;-84
2023/08/20 05:50:36;;;;;;;15.00;9.60;;;;;;;;;;5036010;28;20172;-84
2023/08/20 05:53:02;;;;;;;14.77;10.93;;;;;;;;;;5036159;28;20231;-84
2023/08/20 05:55:28;;;;;;;13.90;10.27;;;;;;;;;;5019374;28;20272;-84
2023/08/20 05:57:54;;;;;;;15.00;9.70;;;;;;;;;;5036051;28;20212;-84
2023/08/20 06:00:20;;;;;;;16.73;11.20;;;;;;;;;;5052321;28;20280;-84
2023/08/20 06:02:46;;;;;;;12.53;10.27;;;;;;;;;;5019343;28;20212;-84
2023/08/20 06:05:12;;;;;;;14.17;10.73;;;;;;;;;;5019289;28;20271;-81
2023/08/20 06:07:39;;;;;;;20.60;10.33;;;;;;;;;;5019441;28;20274;-81
2023/08/20 06:10:05;;;;;;;14.40;10.67;;;;;;;;;;5019334;28;20230;-81
2023/08/20 06:12:31;;;;;;;16.43;10.00;;;;;;;;;;5035493;28;20248;-81
2023/08/20 06:14:57;;;;;;;14.13;9.60;;;;;;;;;;5019349;28;20184;-78
2023/08/20 06:17:23;;;;;;;13.73;9.07;;;;;;;;;;5035690;28;20175;-84
2023/08/20 06:19:49;;;;;;;12.77;8.20;;;;;;;;;;5034092;28;20231;-84
2023/08/20 06:22:15;;;;;;;16.63;7.83;;;;;;;;;;5017994;28;20282;-77
2023/08/20 06:24:41;;;;;;;14.93;8.03;;;;;;;;;;5050211;28;20180;-78
2023/08/20 06:27:07;;;;;;;14.20;7.43;;;;;;;;;;5025912;22;20386;-85
2023/08/20 06:29:33;;;;;;;14.20;7.70;;;;;;;;;;5051749;28;20216;-84
2023/08/20 06:31:59;;;;;;;13.17;6.63;;;;;;;;;;5034363;28;20207;-84
2023/08/20 06:34:25;;;;;;;12.50;7.00;;;;;;;;;;5035464;28;20187;-84
2023/08/20 06:36:51;;;;;;;16.40;6.00;;;;;;;;;;5051073;28;20169;-84
2023/08/20 06:39:19;;;;;;;9.57;5.67;;;;;;;;;;5035008;28;20188;-77
2023/08/20 06:41:45;;;;;;;13.77;5.43;;;;;;;;;;5035108;28;20200;-77
2023/08/20 06:44:11;;;;;;;11.20;5.33;;;;;;;;;;5034954;28;20211;-77
2023/08/20 06:46:37;;;;;;;11.00;5.30;;;;;;;;;;5035142;28;20190;-78
2023/08/20 06:49:03;;;;;;;11.07;4.83;;;;;;;;;;5034743;28;20253;-77
2023/08/20 06:51:30;;;;;;;13.93;4.50;;;;;;;;;;5035124;28;20185;-78
2023/08/20 06:53:56;;;;;;;12.67;5.00;;;;;;;;;;5051466;28;20204;-77
2023/08/20 06:56:22;;;;;;;9.90;4.50;;;;;;;;;;5051341;28;20176;-78
2023/08/20 06:58:48;;;;;;;12.87;4.53;;;;;;;;;;5035900;28;20177;-85
2023/08/20 07:01:14;;;;;;;13.30;4.60;;;;;;;;;;5051468;28;20184;-85
2023/08/20 07:03:41;;;;;;;14.83;4.60;;;;;;;;;;5034926;28;20222;-84
2023/08/20 07:06:09;;;;;;;12.17;4.47;;;;;;;;;;5034564;28;20271;-84
2023/08/20 07:08:35;;;;;;;12.40;4.40;;;;;;;;;;5051028;28;20272;-84
2023/08/20 07:11:01;;;;;;;12.07;4.00;;;;;;;;;;5034729;28;20215;-82
2023/08/20 07:13:27;;;;;;;8.93;3.50;;;;;;;;;;5034744;28;20180;-81
2023/08/20 07:15:55;;;;;;;11.57;3.73;;;;;;;;;;5034611;28;20181;-81
2023/08/20 07:18:21;;;;;;;9.10;3.60;;;;;;;;;;5051066;28;20188;-81
2023/08/20 07:20:47;;;;;;;10.07;3.57;;;;;;;;;;5034504;28;20194;-81
2023/08/20 07:23:13;;;;;;;9.53;3.57;;;;;;;;;;5051153;28;20188;-81
2023/08/20 07:25:39;;;;;;;9.67;3.27;;;;;;;;;;5034518;28;20185;-81
2023/08/20 07:28:06;;;;;;;8.40;3.07;;;;;;;;;;5035187;28;20224;-78
2023/08/20 07:30:33;;;;;;;8.60;3.30;;;;;;;;;;5050833;28;20246;-78
2023/08/20 07:32:59;;;;;;;9.33;3.13;;;;;;;;;;5050615;28;20177;-78
2023/08/20 07:35:25;;;;;;;10.33;3.60;;;;;;;;;;5050476;28;20176;-78
2023/08/20 07:37:51;;;;;;;9.30;3.03;;;;;;;;;;5050714;28;20185;-77
2023/08/20 07:40:17;;;;;;;9.27;3.60;;;;;;;;;;5050592;28;20185;-77
2023/08/20 07:42:43;;;;;;;7.53;3.13;;;;;;;;;;5033959;28;20188;-78
2023/08/20 07:45:10;;;;;;;7.57;3.07;;;;;;;;;;5033715;28;20183;-78
2023/08/20 07:47:36;;;;;;;10.20;3.33;;;;;;;;;;5034319;28;20287;-78
2023/08/20 07:50:02;;;;;;;10.87;3.30;;;;;;;;;;5049964;28;20176;-78
2023/08/20 07:52:29;;;;;;;9.37;3.33;;;;;;;;;;5033910;28;20243;-78
2023/08/20 07:54:54;;;;;;;8.73;3.00;;;;;;;;;;5033795;28;20187;-78
2023/08/20 07:57:21;;;;;;;9.23;3.37;;;;;;;;;;5033684;28;20181;-78
2023/08/20 07:59:47;;;;;;;13.00;3.83;;;;;;;;;;5033780;28;20185;-78
2023/08/20 08:02:13;;;;;;;11.10;3.87;;;;;;;;;;5033577;28;20254;-78
2023/08/20 08:04:39;;;;;;;8.83;3.87;;;;;;;;;;5032663;28;20409;-77
2023/08/20 08:07:05;;;;;;;10.88;3.95;;;;;;;;;;5032668;28;20505;-78
2023/08/20 08:09:32;;;;;;;8.85;3.50;;;;;;;;;;5032609;28;20516;-78
2023/08/20 08:11:58;;;;;;;9.48;3.70;;;;;;;;;;5049010;28;20405;-77
2023/08/20 08:14:25;;;;;;;9.02;3.65;;;;;;;;;;5032564;28;20500;-77
2023/08/20 08:16:51;;;;;;;9.75;3.85;;;;;;;;;;5048660;28;20552;-78
2023/08/20 08:19:17;;;;;;;10.00;3.88;;;;;;;;;;5033962;28;20550;-85
2023/08/20 08:21:44;;;;;;;9.07;3.50;;;;;;;;;;5047469;28;20417;-84
2023/08/20 08:24:11;;;;;;;8.93;3.60;;;;;;;;;;5014603;28;20418;-85
2023/08/20 08:26:37;;;;;;;8.23;3.40;;;;;;;;;;5047386;28;20515;-84
2023/08/20 08:29:03;;;;;;;8.88;3.20;;;;;;;;;;5015674;28;20433;-85
2023/08/20 08:31:29;;;;;;;8.75;3.22;;;;;;;;;;5032282;28;20437;-85
2023/08/20 08:33:55;;;;;;;7.05;2.80;;;;;;;;;;5048783;28;20574;-85
2023/08/20 08:36:21;;;;;;;6.65;2.50;;;;;;;;;;5016156;28;20496;-85
2023/08/20 08:38:47;;;;;;;8.48;2.88;;;;;;;;;;5048877;28;20398;-85
2023/08/20 08:41:14;;;;;;;7.45;2.90;;;;;;;;;;5015664;28;20444;-84
2023/08/20 08:43:40;;;;;;;6.70;2.07;;;;;;;;;;5016046;28;20416;-85
2023/08/20 08:46:07;;;;;;;5.10;2.20;;;;;;;;;;5049057;28;20410;-85
2023/08/20 08:48:37;;;;;;;5.38;2.17;;;;;;;;;;5048615;28;20487;-85
2023/08/20 08:51:03;;;;;;;4.63;1.80;;;;;;;;;;5048627;28;20417;-78
2023/08/20 08:53:31;;;;;;;4.60;2.20;;;;;;;;;;5048547;28;20451;-78
2023/08/20 08:55:57;;;;;;;6.38;1.98;;;;;;;;;;5048349;28;20485;-78
2023/08/20 08:58:23;;;;;;;7.03;2.10;;;;;;;;;;5015428;28;20417;-78
2023/08/20 09:00:49;;;;;;;5.80;2.00;;;;;;;;;;5015268;28;20424;-78
2023/08/20 09:03:15;;;;;;;4.88;1.73;;;;;;;;;;5015353;28;20496;-79
2023/08/20 09:06:03;;;;;;;5.22;1.90;;;;;;;;;;5015534;28;20487;-78
2023/08/20 09:08:32;;;;;;;4.72;1.80;;;;;;;;;;5049215;28;20295;-82
2023/08/20 09:10:59;;;;;;;4.53;1.83;;;;;;;;;;5033249;28;20410;-82
2023/08/20 09:13:26;;;;;;;3.53;1.75;;;;;;;;;;5049116;28;20211;-82
2023/08/20 09:15:53;;;;;;;4.20;1.70;;;;;;;;;;5048787;28;20417;-83
2023/08/20 09:18:19;;;;;;;5.43;2.00;;;;;;;;;;5048556;28;20572;-83
2023/08/20 09:20:45;;;;;;;5.32;1.65;;;;;;;;;;5048160;28;20413;-79
2023/08/20 09:23:14;;;;;;;4.18;1.55;;;;;;;;;;5031745;28;20413;-79
2023/08/20 09:25:41;;;;;;;4.37;1.67;;;;;;;;;;5015826;28;20410;-80
2023/08/20 09:28:07;;;;;;;3.47;1.50;;;;;;;;;;5048389;28;20457;-83
2023/08/20 09:30:34;;;;;;;3.83;1.58;;;;;;;;;;5015197;28;20424;-82
2023/08/20 09:33:14;;;;;;;3.55;1.50;;;;;;;;;;5015750;28;20414;-83
2023/08/20 09:35:49;;;;;;;5.28;1.73;;;;;;;;;;5015520;28;20469;-82
2023/08/20 09:38:15;;;;;;;4.55;1.40;;;;;;;;;;5048847;28;20172;-83
2023/08/20 09:40:41;;;;;;;4.22;1.40;;;;;;;;;;5015843;28;20414;-83
2023/08/20 09:43:08;;;;;;;4.13;1.50;;;;;;;;;;5015228;28;20413;-83
2023/08/20 09:45:35;;;;;;;4.68;1.60;;;;;;;;;;5048629;28;20424;-83
2023/08/20 09:48:04;;;;;;;3.10;1.40;;;;;;;;;;5015106;28;20483;-83
2023/08/20 09:50:36;;;;;;;3.03;1.30;;;;;;;;;;5048159;28;20398;-83
2023/08/20 09:53:07;;;;;;;3.25;1.38;;;;;;;;;;5015639;28;20409;-83
2023/08/20 09:55:36;;;;;;;3.85;1.50;;;;;;;;;;5047984;28;20408;-83
2023/08/20 09:58:03;;;;;;;4.70;1.63;;;;;;;;;;5048033;28;20410;-86
2023/08/20 10:00:29;;;;;;;3.85;1.38;;;;;;;;;;5032279;28;20406;-86
2023/08/20 10:02:56;;;;;;;2.33;1.10;;;;;;;;;;5032532;28;20437;-86
2023/08/20 10:05:23;;;;;;;3.50;1.48;;;;;;;;;;5048825;28;20177;-86
2023/08/20 10:07:50;;;;;;;3.85;1.50;;;;;;;;;;5031818;28;20519;-86
2023/08/20 10:10:16;;;;;;;3.17;1.27;;;;;;;;;;5031645;28;20422;-86
2023/08/20 10:12:44;;;;;;;3.40;1.50;;;;;;;;;;5034898;28;20409;-86
2023/08/20 10:15:11;;;;;;;2.30;1.10;;;;;;;;;;5052471;28;20176;-83
2023/08/20 10:17:37;;;;;;;2.10;1.10;;;;;;;;;;5052403;28;20184;-84
2023/08/20 10:20:04;;;;;;;2.22;1.15;;;;;;;;;;5019299;28;20184;-84
2023/08/20 10:22:41;;;;;;;2.20;1.02;;;;;;;;;;5052063;28;20180;-83
2023/08/20 10:25:07;;;;;;;2.65;1.33;;;;;;;;;;5052386;28;20177;-84
2023/08/20 10:27:35;;;;;;;2.03;1.20;;;;;;;;;;5051833;28;20232;-84
2023/08/20 10:30:02;;;;;;;2.13;1.50;;;;;;;;;;5052199;28;20267;-83
2023/08/20 10:32:45;;;;;;;3.55;1.48;;;;;;;;;;5051813;28;20223;-80
2023/08/20 10:35:12;;;;;;;3.88;1.52;;;;;;;;;;5018936;28;20188;-80
2023/08/20 10:37:40;;;;;;;4.05;1.60;;;;;;;;;;5051955;28;20172;-81
2023/08/20 10:40:06;;;;;;;3.05;1.40;;;;;;;;;;5051608;28;20181;-80
2023/08/20 10:42:32;;;;;;;2.30;1.10;;;;;;;;;;5018855;28;20267;-80
2023/08/20 10:45:08;;;;;;;3.80;1.42;;;;;;;;;;5052493;28;20284;-80
2023/08/20 10:47:37;;;;;;;3.10;1.42;;;;;;;;;;5036715;28;20164;-80
2023/08/20 10:50:03;;;;;;;4.53;1.20;;;;;;;;;;5051978;28;20176;-77
2023/08/20 10:52:29;;;;;;;3.35;1.20;;;;;;;;;;5052161;28;20176;-78
2023/08/20 10:54:56;;;;;;;4.30;1.52;;;;;;;;;;5018681;28;20272;-78
2023/08/20 10:57:24;;;;;;;4.13;1.50;;;;;;;;;;5036349;28;20175;-78
2023/08/20 11:00:01;;;;;;;2.55;1.35;;;;;;;;;;5019037;28;20177;-78
2023/08/20 11:02:28;;;;;;;2.72;1.50;;;;;;;;;;5036541;28;20234;-78
2023/08/20 11:04:54;;;;;;;2.47;1.13;;;;;;;;;;5051620;28;20168;-78
2023/08/20 11:07:21;;;;;;;3.88;1.27;;;;;;;;;;5051419;28;20196;-78
2023/08/20 11:09:48;;;;;;;3.17;1.25;;;;;;;;;;5018701;28;20189;-78
2023/08/20 11:12:17;;;;;;;3.53;1.40;;;;;;;;;;5018782;28;20185;-79
2023/08/20 11:14:43;;;;;;;2.65;1.30;;;;;;;;;;5035236;28;20200;-86
2023/08/20 11:17:10;;;;;;;4.70;1.48;;;;;;;;;;5034778;28;20234;-86
2023/08/20 11:19:36;;;;;;;3.00;1.30;;;;;;;;;;5018402;28;20181;-86
2023/08/20 11:22:02;;;;;;;2.65;1.05;;;;;;;;;;5051195;28;20251;-81
2023/08/20 11:24:29;;;;;;;3.50;1.50;;;;;;;;;;5018305;28;20237;-81
2023/08/20 11:26:55;;;;;;;3.92;1.50;;;;;;;;;;5050125;28;20421;-80
2023/08/20 11:29:22;;;;;;;4.47;1.65;;;;;;;;;;5050695;28;20425;-80
2023/08/20 11:31:48;;;;;;;2.90;1.38;;;;;;;;;;5050342;28;20497;-80
2023/08/20 11:34:14;;;;;;;3.45;1.50;;;;;;;;;;5051365;28;20176;-80
2023/08/20 11:36:40;;;;;;;3.95;1.50;;;;;;;;;;5033824;28;20406;-80
2023/08/20 11:39:07;;;;;;;4.00;1.50;;;;;;;;;;5017431;28;20413;-80
2023/08/20 11:41:36;;;;;;;3.42;1.50;;;;;;;;;;5049882;28;20544;-80
2023/08/20 11:44:03;;;;;;;4.05;1.33;;;;;;;;;;5049845;28;20402;-80
2023/08/20 11:46:29;;;;;;;3.03;1.50;;;;;;;;;;5033496;28;20492;-86
2023/08/20 11:49:04;;;;;;;4.32;1.52;;;;;;;;;;5033300;28;20429;-86
2023/08/20 11:51:30;;;;;;;4.10;1.60;;;;;;;;;;5049879;28;20398;-86
2023/08/20 11:53:58;;;;;;;4.35;1.60;;;;;;;;;;5034575;28;20402;-86
2023/08/20 11:56:24;;;;;;;4.40;1.70;;;;;;;;;;5049944;28;20414;-80
2023/08/20 11:58:53;;;;;;;3.33;1.30;;;;;;;;;;5034119;28;20181;-81
2023/08/20 12:01:19;;;;;;;3.42;1.48;;;;;;;;;;5033588;28;20506;-80
2023/08/20 12:03:45;;;;;;;3.33;1.45;;;;;;;;;;5017734;28;20185;-81
2023/08/20 12:06:23;;;;;;;4.30;1.40;;;;;;;;;;5034028;28;20413;-81
2023/08/20 12:08:49;;;;;;;4.05;1.58;;;;;;;;;;5034646;28;20547;-86
2023/08/20 12:11:15;;;;;;;2.80;1.30;;;;;;;;;;5016616;28;20417;-81
2023/08/20 12:13:41;;;;;;;4.30;1.40;;;;;;;;;;5049447;28;20405;-80
2023/08/20 12:16:07;;;;;;;2.78;1.38;;;;;;;;;;5049754;28;20414;-80
2023/08/20 12:18:34;;;;;;;4.03;1.80;;;;;;;;;;5016665;28;20405;-80
2023/08/20 12:21:00;;;;;;;3.65;1.52;;;;;;;;;;5049533;28;20425;-81
2023/08/20 12:23:26;;;;;;;3.45;1.45;;;;;;;;;;5033446;28;20414;-80
2023/08/20 12:25:53;;;;;;;3.58;1.40;;;;;;;;;;5032689;28;20420;-80
2023/08/20 12:28:19;;;;;;;3.95;1.73;;;;;;;;;;5049101;28;20539;-84
2023/08/20 12:30:46;;;;;;;3.30;1.50;;;;;;;;;;5049017;28;20480;-84
2023/08/20 12:33:12;;;;;;;3.65;1.60;;;;;;;;;;5016406;28;20410;-84
2023/08/20 12:35:38;;;;;;;4.00;1.50;;;;;;;;;;5048722;28;20409;-83
2023/08/20 12:38:04;;;;;;;3.72;1.52;;;;;;;;;;5016436;28;20555;-80
2023/08/20 12:40:31;;;;;;;4.43;1.70;;;;;;;;;;5016159;28;20456;-80
2023/08/20 12:42:57;;;;;;;3.40;1.60;;;;;;;;;;5032370;28;20410;-79
2023/08/20 12:45:23;;;;;;;3.10;1.60;;;;;;;;;;5048805;28;20441;-83
2023/08/20 12:47:49;;;;;;;3.65;1.50;;;;;;;;;;5032328;28;20465;-83
2023/08/20 12:50:15;;;;;;;3.70;1.50;;;;;;;;;;5032546;28;20425;-83
2023/08/20 12:52:42;;;;;;;3.93;1.70;;;;;;;;;;5015870;28;20460;-83
2023/08/20 12:55:09;;;;;;;5.30;1.77;;;;;;;;;;5033635;28;20412;-83
2023/08/20 12:57:38;;;;;;;4.75;1.60;;;;;;;;;;5015879;28;20409;-83
2023/08/20 13:00:11;;;;;;;4.35;1.60;;;;;;;;;;5032482;28;20492;-83
2023/08/20 13:02:37;;;;;;;3.40;1.60;;;;;;;;;;5016706;28;20406;-79
2023/08/20 13:05:04;;;;;;;4.07;1.80;;;;;;;;;;5033040;28;20417;-79
2023/08/20 13:07:30;;;;;;;3.10;1.60;;;;;;;;;;5032897;28;20397;-79
2023/08/20 13:09:56;;;;;;;4.83;1.70;;;;;;;;;;5016064;28;20412;-79
2023/08/20 13:12:24;;;;;;;4.28;1.50;;;;;;;;;;5032186;28;20412;-79
2023/08/20 13:14:50;;;;;;;3.88;1.80;;;;;;;;;;5048623;28;20409;-80
2023/08/20 13:17:16;;;;;;;5.15;1.83;;;;;;;;;;5033009;28;20398;-79
2023/08/20 13:19:42;;;;;;;4.70;1.93;;;;;;;;;;5048811;28;20410;-83
2023/08/20 13:22:08;;;;;;;5.25;1.90;;;;;;;;;;5015736;28;20425;-83
2023/08/20 13:24:34;;;;;;;3.42;1.63;;;;;;;;;;5015717;28;20417;-79
2023/08/20 13:27:00;;;;;;;3.70;1.63;;;;;;;;;;5015518;28;20476;-79
2023/08/20 13:29:26;;;;;;;4.20;1.70;;;;;;;;;;5015381;28;20473;-80
2023/08/20 13:31:52;;;;;;;4.20;1.55;;;;;;;;;;5031837;28;20492;-80
2023/08/20 13:34:19;;;;;;;3.30;1.50;;;;;;;;;;5048409;28;20448;-86
2023/08/20 13:36:46;;;;;;;3.92;1.70;;;;;;;;;;5048262;28;20405;-86
2023/08/20 13:39:13;;;;;;;3.33;1.50;;;;;;;;;;5048498;28;20416;-86
2023/08/20 13:41:40;;;;;;;4.22;1.60;;;;;;;;;;5048839;28;20817;-83
2023/08/20 13:44:06;;;;;;;4.40;1.70;;;;;;;;;;5015356;28;20410;-86
2023/08/20 13:46:32;;;;;;;5.10;1.63;;;;;;;;;;5049325;28;20471;-83
2023/08/20 13:48:58;;;;;;;3.13;1.40;;;;;;;;;;5019364;28;20523;-83
2023/08/20 13:51:25;;;;;;;4.40;1.50;;;;;;;;;;5052235;28;20459;-80
2023/08/20 13:53:51;;;;;;;5.05;1.65;;;;;;;;;;5052173;28;20406;-79
2023/08/20 13:56:17;;;;;;;4.25;1.77;;;;;;;;;;5037145;28;20436;-80
2023/08/20 13:58:43;;;;;;;4.83;1.70;;;;;;;;;;5052139;28;20437;-79
2023/08/20 14:01:09;;;;;;;3.72;1.63;;;;;;;;;;5018898;28;20421;-78
2023/08/20 14:03:35;;;;;;;4.82;1.80;;;;;;;;;;5035266;28;20455;-82
2023/08/20 14:06:01;;;;;;;3.35;1.50;;;;;;;;;;5036304;28;20409;-82
2023/08/20 14:08:27;;;;;;;3.90;1.73;;;;;;;;;;5051527;28;20473;-85
2023/08/20 14:10:53;;;;;;;6.45;2.47;;;;;;;;;;5019284;28;20410;-85
2023/08/20 14:13:19;;;;;;;5.13;1.95;;;;;;;;;;5018812;28;20422;-85
2023/08/20 14:15:45;;;;;;;4.65;1.98;;;;;;;;;;5052326;28;20416;-85
2023/08/20 14:18:11;;;;;;;4.18;1.80;;;;;;;;;;5036442;28;20405;-85
2023/08/20 14:20:37;;;;;;;3.30;1.58;;;;;;;;;;5018570;28;20406;-85
2023/08/20 14:23:03;;;;;;;5.28;1.63;;;;;;;;;;5018845;28;20425;-85
2023/08/20 14:25:29;;;;;;;4.20;1.58;;;;;;;;;;5035032;28;20405;-78
2023/08/20 14:27:55;;;;;;;5.00;2.22;;;;;;;;;;5035940;28;20441;-79
2023/08/20 14:30:21;;;;;;;3.70;2.10;;;;;;;;;;5019355;28;20249;-79
2023/08/20 14:32:48;;;;;;;3.22;1.40;;;;;;;;;;5019069;28;20183;-79